Hauptseite
METAR-TAF:

METAR-TAF

Flughäfen :

Flughafen Dortmund

Dortmund, Deutschland

Breite: 51-31N, Länge: 007-37E, Höhe: 127 m

Beobachtung

Neuester Wetterbericht von vor 31 Minuten, um 04:20 UTC
Wind 10 kt aus Süd/Südost
Temperatur 13°C
Luftfeuchtigkeit 67%
Luftdruck 1016 hPa
Sichtweite 10 km oder mehr
keine Wolken unter 1500 m und keine Kumulonimbus oder Gewitterwolken

METAR: EDLW 050420Z 16010KT CAVOK 13/07 Q1016

Zeit: 06:51 (04:51 UTC)

Prognose

Neuester Wetterbericht von vor 1 Stunde und 31 Minuten, um 03:20 UTC
Gültige Prognose vom 05 um 04 UTC bis 05 um 24 UTC
Wind 8 kt aus Süd/Südost
Sichtweite 10 km oder mehr
keine Wolken unter 1500 m und keine Kumulonimbus oder Gewitterwolken
Übergehend zu
vom 05 um 06 UTC bis 05 um 09 UTC
Wind 9 kt aus Südwest
Übergehend zu
vom 05 um 16 UTC bis 05 um 18 UTC
Wind 6 kt aus Süd/Südost

TAF: EDLW 050320Z 0504/0524 16008KT CAVOK BECMG 0506/0509 22009KT BECMG 0516/0518 16006KT

Wetterbeobachtungen und Prognosen von mehr als 4000 Flughäfen (METAR und TAF Bericht).

Die verfügbaren Stationen werden durch gelbe und rote Markierungen auf der Karte dargestellt.

Führen Sie die Maus auf sie, um den Namen der Station zu sehen.

Darauf klicken, um die Beobachtung von Wetterbeobachtungen und Prognosen zu sehen.

Um die Karte zu ändern : klicken Sie auf den grünen Tasten mit einem schwarzen Kreuz Zum Vergrößern, auf den grünen Button mit einem Gedankenstrich zu verkleinern, oder auf die grünen Pfeile für benachbarte Karten.


METAR-TAF: